sensor_id;sensor_type;location;lat;lon;timestamp;P1;durP1;ratioP1;P2;durP2;ratioP2
31618;SDS011;18230;51.502;7.108;2022-09-20T00:00:47;17.23;;;4.20;;
31618;SDS011;18230;51.502;7.108;2022-09-20T00:05:48;17.25;;;4.65;;
31618;SDS011;18230;51.502;7.108;2022-09-20T00:10:48;17.17;;;4.20;;
31618;SDS011;18230;51.502;7.108;2022-09-20T00:15:56;15.75;;;4.15;;
31618;SDS011;18230;51.502;7.108;2022-09-20T00:20:58;20.00;;;4.82;;
31618;SDS011;18230;51.502;7.108;2022-09-20T00:26:00;16.20;;;4.40;;
31618;SDS011;18230;51.502;7.108;2022-09-20T00:31:02;19.90;;;4.40;;
31618;SDS011;18230;51.502;7.108;2022-09-20T00:36:02;16.27;;;4.40;;
31618;SDS011;18230;51.502;7.108;2022-09-20T00:41:03;17.30;;;4.40;;
31618;SDS011;18230;51.502;7.108;2022-09-20T00:46:05;21.58;;;5.68;;
31618;SDS011;18230;51.502;7.108;2022-09-20T00:51:24;22.27;;;5.65;;
31618;SDS011;18230;51.502;7.108;2022-09-20T00:56:29;24.58;;;5.57;;
31618;SDS011;18230;51.502;7.108;2022-09-20T01:01:33;16.25;;;5.43;;
31618;SDS011;18230;51.502;7.108;2022-09-20T01:06:35;24.35;;;5.68;;
31618;SDS011;18230;51.502;7.108;2022-09-20T01:11:36;20.08;;;4.72;;
31618;SDS011;18230;51.502;7.108;2022-09-20T01:16:39;19.77;;;5.03;;
31618;SDS011;18230;51.502;7.108;2022-09-20T01:21:41;20.58;;;5.18;;
31618;SDS011;18230;51.502;7.108;2022-09-20T01:32:11;22.23;;;5.75;;
31618;SDS011;18230;51.502;7.108;2022-09-20T01:37:21;16.88;;;5.95;;
31618;SDS011;18230;51.502;7.108;2022-09-20T01:42:32;28.70;;;6.07;;
31618;SDS011;18230;51.502;7.108;2022-09-20T01:58:42;24.58;;;5.35;;
31618;SDS011;18230;51.502;7.108;2022-09-20T02:20:30;21.88;;;6.70;;
31618;SDS011;18230;51.502;7.108;2022-09-20T02:58:01;25.67;;;7.05;;
31618;SDS011;18230;51.502;7.108;2022-09-20T03:19:36;20.35;;;7.85;;
31618;SDS011;18230;51.502;7.108;2022-09-20T03:30:21;21.95;;;7.63;;
31618;SDS011;18230;51.502;7.108;2022-09-20T03:46:29;17.45;;;6.63;;
31618;SDS011;18230;51.502;7.108;2022-09-20T04:18:51;29.13;;;9.43;;
31618;SDS011;18230;51.502;7.108;2022-09-20T04:34:30;22.85;;;9.15;;
31618;SDS011;18230;51.502;7.108;2022-09-20T04:40:01;21.47;;;7.70;;
31618;SDS011;18230;51.502;7.108;2022-09-20T04:45:24;20.92;;;8.27;;
31618;SDS011;18230;51.502;7.108;2022-09-20T05:01:55;20.58;;;7.10;;
31618;SDS011;18230;51.502;7.108;2022-09-20T05:18:40;17.58;;;6.93;;
31618;SDS011;18230;51.502;7.108;2022-09-20T05:29:27;24.98;;;9.38;;
31618;SDS011;18230;51.502;7.108;2022-09-20T06:02:19;27.50;;;9.60;;
31618;SDS011;18230;51.502;7.108;2022-09-20T06:18:32;29.95;;;9.35;;
31618;SDS011;18230;51.502;7.108;2022-09-20T06:23:40;20.85;;;8.63;;
31618;SDS011;18230;51.502;7.108;2022-09-20T06:28:41;24.65;;;8.35;;
31618;SDS011;18230;51.502;7.108;2022-09-20T06:33:56;18.45;;;7.45;;
31618;SDS011;18230;51.502;7.108;2022-09-20T06:45:06;23.55;;;8.05;;
31618;SDS011;18230;51.502;7.108;2022-09-20T06:50:13;27.67;;;8.52;;
31618;SDS011;18230;51.502;7.108;2022-09-20T06:55:17;28.13;;;8.82;;
31618;SDS011;18230;51.502;7.108;2022-09-20T07:00:21;22.90;;;7.82;;
31618;SDS011;18230;51.502;7.108;2022-09-20T07:05:22;28.95;;;9.02;;
31618;SDS011;18230;51.502;7.108;2022-09-20T07:10:26;22.02;;;8.07;;
31618;SDS011;18230;51.502;7.108;2022-09-20T07:15:44;23.10;;;7.88;;
31618;SDS011;18230;51.502;7.108;2022-09-20T07:20:46;23.17;;;6.80;;
31618;SDS011;18230;51.502;7.108;2022-09-20T07:25:49;19.73;;;6.22;;
31618;SDS011;18230;51.502;7.108;2022-09-20T07:30:51;16.70;;;6.45;;
31618;SDS011;18230;51.502;7.108;2022-09-20T07:35:52;21.00;;;6.15;;
31618;SDS011;18230;51.502;7.108;2022-09-20T07:40:57;30.73;;;7.05;;
31618;SDS011;18230;51.502;7.108;2022-09-20T07:45:59;18.13;;;7.13;;
31618;SDS011;18230;51.502;7.108;2022-09-20T07:51:02;18.35;;;5.88;;
31618;SDS011;18230;51.502;7.108;2022-09-20T07:56:10;16.15;;;6.20;;
31618;SDS011;18230;51.502;7.108;2022-09-20T08:01:14;23.27;;;6.47;;
31618;SDS011;18230;51.502;7.108;2022-09-20T08:06:15;19.58;;;5.25;;
31618;SDS011;18230;51.502;7.108;2022-09-20T08:11:18;19.88;;;5.30;;
31618;SDS011;18230;51.502;7.108;2022-09-20T08:16:29;13.85;;;5.05;;
31618;SDS011;18230;51.502;7.108;2022-09-20T08:21:35;13.75;;;4.80;;
31618;SDS011;18230;51.502;7.108;2022-09-20T08:26:38;15.57;;;4.10;;
31618;SDS011;18230;51.502;7.108;2022-09-20T08:31:42;17.63;;;4.82;;
31618;SDS011;18230;51.502;7.108;2022-09-20T08:36:44;20.83;;;4.40;;
31618;SDS011;18230;51.502;7.108;2022-09-20T08:47:17;18.75;;;4.78;;
31618;SDS011;18230;51.502;7.108;2022-09-20T08:52:46;11.65;;;3.42;;
31618;SDS011;18230;51.502;7.108;2022-09-20T08:57:51;15.40;;;2.85;;
31618;SDS011;18230;51.502;7.108;2022-09-20T09:02:55;18.52;;;3.03;;
31618;SDS011;18230;51.502;7.108;2022-09-20T09:08:01;9.27;;;2.80;;
31618;SDS011;18230;51.502;7.108;2022-09-20T09:13:31;14.20;;;2.20;;
31618;SDS011;18230;51.502;7.108;2022-09-20T09:18:37;16.00;;;2.42;;
31618;SDS011;18230;51.502;7.108;2022-09-20T09:23:40;12.98;;;2.22;;
31618;SDS011;18230;51.502;7.108;2022-09-20T09:34:21;11.52;;;2.03;;
31618;SDS011;18230;51.502;7.108;2022-09-20T09:39:29;11.60;;;2.17;;
31618;SDS011;18230;51.502;7.108;2022-09-20T09:44:31;11.35;;;2.40;;
31618;SDS011;18230;51.502;7.108;2022-09-20T09:49:33;10.98;;;2.00;;
31618;SDS011;18230;51.502;7.108;2022-09-20T09:54:36;7.03;;;1.73;;
31618;SDS011;18230;51.502;7.108;2022-09-20T10:05:18;13.68;;;2.00;;
31618;SDS011;18230;51.502;7.108;2022-09-20T10:26:17;10.50;;;2.03;;
31618;SDS011;18230;51.502;7.108;2022-09-20T10:36:57;9.25;;;1.90;;
31618;SDS011;18230;51.502;7.108;2022-09-20T10:42:03;13.75;;;2.47;;
31618;SDS011;18230;51.502;7.108;2022-09-20T10:47:47;6.53;;;1.80;;
31618;SDS011;18230;51.502;7.108;2022-09-20T11:04:23;11.13;;;1.50;;
31618;SDS011;18230;51.502;7.108;2022-09-20T11:09:36;10.50;;;1.75;;
31618;SDS011;18230;51.502;7.108;2022-09-20T11:14:44;10.93;;;1.93;;
31618;SDS011;18230;51.502;7.108;2022-09-20T11:20:04;10.57;;;2.40;;
31618;SDS011;18230;51.502;7.108;2022-09-20T11:25:15;8.65;;;2.35;;
31618;SDS011;18230;51.502;7.108;2022-09-20T11:40:33;9.70;;;2.45;;
31618;SDS011;18230;51.502;7.108;2022-09-20T11:45:39;9.35;;;1.95;;
31618;SDS011;18230;51.502;7.108;2022-09-20T11:56:11;7.13;;;1.85;;
31618;SDS011;18230;51.502;7.108;2022-09-20T12:01:37;7.20;;;1.55;;
31618;SDS011;18230;51.502;7.108;2022-09-20T12:06:41;8.93;;;1.90;;
31618;SDS011;18230;51.502;7.108;2022-09-20T12:11:42;8.57;;;1.98;;
31618;SDS011;18230;51.502;7.108;2022-09-20T12:16:44;7.43;;;1.67;;
31618;SDS011;18230;51.502;7.108;2022-09-20T12:27:18;7.32;;;1.60;;
31618;SDS011;18230;51.502;7.108;2022-09-20T12:37:40;4.13;;;0.88;;
31618;SDS011;18230;51.502;7.108;2022-09-20T12:42:43;6.68;;;1.15;;
31618;SDS011;18230;51.502;7.108;2022-09-20T12:47:53;8.02;;;1.30;;
31618;SDS011;18230;51.502;7.108;2022-09-20T12:52:55;5.93;;;1.00;;
31618;SDS011;18230;51.502;7.108;2022-09-20T13:08:27;5.70;;;0.77;;
31618;SDS011;18230;51.502;7.108;2022-09-20T13:24:23;5.57;;;1.20;;
31618;SDS011;18230;51.502;7.108;2022-09-20T13:29:39;5.22;;;1.30;;
31618;SDS011;18230;51.502;7.108;2022-09-20T13:34:41;8.35;;;1.73;;
31618;SDS011;18230;51.502;7.108;2022-09-20T13:39:44;6.68;;;1.20;;
31618;SDS011;18230;51.502;7.108;2022-09-20T13:44:46;8.68;;;1.35;;
31618;SDS011;18230;51.502;7.108;2022-09-20T13:49:47;8.20;;;1.30;;
31618;SDS011;18230;51.502;7.108;2022-09-20T13:54:52;4.05;;;0.82;;
31618;SDS011;18230;51.502;7.108;2022-09-20T13:59:54;2.50;;;0.70;;
31618;SDS011;18230;51.502;7.108;2022-09-20T14:04:58;7.40;;;0.93;;
31618;SDS011;18230;51.502;7.108;2022-09-20T14:10:03;8.77;;;1.20;;
31618;SDS011;18230;51.502;7.108;2022-09-20T14:15:30;4.35;;;1.83;;
31618;SDS011;18230;51.502;7.108;2022-09-20T14:20:36;6.63;;;1.10;;
31618;SDS011;18230;51.502;7.108;2022-09-20T14:25:37;7.40;;;1.95;;
31618;SDS011;18230;51.502;7.108;2022-09-20T14:30:37;5.97;;;2.45;;
31618;SDS011;18230;51.502;7.108;2022-09-20T14:35:38;8.80;;;2.13;;
31618;SDS011;18230;51.502;7.108;2022-09-20T14:40:49;7.80;;;1.50;;
31618;SDS011;18230;51.502;7.108;2022-09-20T14:45:54;5.38;;;1.33;;
31618;SDS011;18230;51.502;7.108;2022-09-20T14:56:31;5.55;;;1.90;;
31618;SDS011;18230;51.502;7.108;2022-09-20T15:06:37;4.72;;;1.42;;
31618;SDS011;18230;51.502;7.108;2022-09-20T15:11:42;9.20;;;2.67;;
31618;SDS011;18230;51.502;7.108;2022-09-20T15:16:42;5.50;;;1.45;;
31618;SDS011;18230;51.502;7.108;2022-09-20T15:21:45;5.30;;;1.40;;
31618;SDS011;18230;51.502;7.108;2022-09-20T15:26:46;6.53;;;1.52;;
31618;SDS011;18230;51.502;7.108;2022-09-20T15:31:46;5.25;;;1.27;;
31618;SDS011;18230;51.502;7.108;2022-09-20T15:36:47;10.63;;;1.33;;
31618;SDS011;18230;51.502;7.108;2022-09-20T15:41:52;7.38;;;1.40;;
31618;SDS011;18230;51.502;7.108;2022-09-20T15:46:53;11.68;;;1.55;;
31618;SDS011;18230;51.502;7.108;2022-09-20T15:51:55;6.55;;;1.10;;
31618;SDS011;18230;51.502;7.108;2022-09-20T15:56:56;5.97;;;1.30;;
31618;SDS011;18230;51.502;7.108;2022-09-20T16:01:57;6.05;;;1.50;;
31618;SDS011;18230;51.502;7.108;2022-09-20T16:06:58;7.43;;;2.05;;
31618;SDS011;18230;51.502;7.108;2022-09-20T16:11:59;8.68;;;3.05;;
31618;SDS011;18230;51.502;7.108;2022-09-20T16:17:00;5.75;;;2.08;;
31618;SDS011;18230;51.502;7.108;2022-09-20T16:22:01;8.88;;;2.45;;
31618;SDS011;18230;51.502;7.108;2022-09-20T16:27:03;12.25;;;4.75;;
31618;SDS011;18230;51.502;7.108;2022-09-20T16:32:05;7.28;;;2.20;;
31618;SDS011;18230;51.502;7.108;2022-09-20T16:37:10;6.60;;;1.70;;
31618;SDS011;18230;51.502;7.108;2022-09-20T16:42:17;9.23;;;2.05;;
31618;SDS011;18230;51.502;7.108;2022-09-20T16:47:19;9.35;;;1.60;;
31618;SDS011;18230;51.502;7.108;2022-09-20T16:52:25;9.40;;;1.65;;
31618;SDS011;18230;51.502;7.108;2022-09-20T16:57:27;6.40;;;1.58;;
31618;SDS011;18230;51.502;7.108;2022-09-20T17:02:28;6.85;;;1.65;;
31618;SDS011;18230;51.502;7.108;2022-09-20T17:07:35;10.25;;;1.83;;
31618;SDS011;18230;51.502;7.108;2022-09-20T17:12:36;9.82;;;1.70;;
31618;SDS011;18230;51.502;7.108;2022-09-20T17:17:45;8.13;;;1.40;;
31618;SDS011;18230;51.502;7.108;2022-09-20T17:22:46;9.18;;;1.90;;
31618;SDS011;18230;51.502;7.108;2022-09-20T17:27:49;10.40;;;1.85;;
31618;SDS011;18230;51.502;7.108;2022-09-20T17:32:50;6.60;;;1.65;;
31618;SDS011;18230;51.502;7.108;2022-09-20T17:37:51;7.88;;;1.70;;
31618;SDS011;18230;51.502;7.108;2022-09-20T17:42:52;6.55;;;1.63;;
31618;SDS011;18230;51.502;7.108;2022-09-20T17:47:54;6.35;;;1.52;;
31618;SDS011;18230;51.502;7.108;2022-09-20T17:52:56;10.60;;;1.90;;
31618;SDS011;18230;51.502;7.108;2022-09-20T17:57:58;7.82;;;1.85;;
31618;SDS011;18230;51.502;7.108;2022-09-20T18:02:59;13.50;;;1.92;;
31618;SDS011;18230;51.502;7.108;2022-09-20T18:08:00;5.10;;;1.63;;
31618;SDS011;18230;51.502;7.108;2022-09-20T18:13:02;6.05;;;1.50;;
31618;SDS011;18230;51.502;7.108;2022-09-20T18:18:03;5.95;;;1.70;;
31618;SDS011;18230;51.502;7.108;2022-09-20T18:23:04;5.45;;;1.25;;
31618;SDS011;18230;51.502;7.108;2022-09-20T18:28:05;3.58;;;1.10;;
31618;SDS011;18230;51.502;7.108;2022-09-20T18:33:06;5.25;;;1.67;;
31618;SDS011;18230;51.502;7.108;2022-09-20T18:38:09;6.18;;;1.60;;
31618;SDS011;18230;51.502;7.108;2022-09-20T18:43:10;8.35;;;1.77;;
31618;SDS011;18230;51.502;7.108;2022-09-20T18:48:14;5.28;;;1.77;;
31618;SDS011;18230;51.502;7.108;2022-09-20T18:53:14;6.72;;;1.52;;
31618;SDS011;18230;51.502;7.108;2022-09-20T19:10:42;6.22;;;1.83;;
31618;SDS011;18230;51.502;7.108;2022-09-20T19:21:27;7.65;;;2.38;;
31618;SDS011;18230;51.502;7.108;2022-09-20T19:26:37;12.90;;;6.38;;
31618;SDS011;18230;51.502;7.108;2022-09-20T19:31:39;7.75;;;3.42;;
31618;SDS011;18230;51.502;7.108;2022-09-20T19:36:46;16.55;;;3.60;;
31618;SDS011;18230;51.502;7.108;2022-09-20T19:58:03;9.80;;;3.97;;
31618;SDS011;18230;51.502;7.108;2022-09-20T20:03:04;10.30;;;3.80;;
31618;SDS011;18230;51.502;7.108;2022-09-20T20:29:32;14.38;;;4.47;;
31618;SDS011;18230;51.502;7.108;2022-09-20T20:34:32;8.27;;;3.50;;
31618;SDS011;18230;51.502;7.108;2022-09-20T20:39:36;8.88;;;3.17;;
31618;SDS011;18230;51.502;7.108;2022-09-20T20:44:36;10.23;;;3.10;;
31618;SDS011;18230;51.502;7.108;2022-09-20T20:49:37;8.32;;;3.33;;
31618;SDS011;18230;51.502;7.108;2022-09-20T20:54:38;10.15;;;3.15;;
31618;SDS011;18230;51.502;7.108;2022-09-20T20:59:39;9.23;;;3.17;;
31618;SDS011;18230;51.502;7.108;2022-09-20T21:04:39;12.23;;;3.42;;
31618;SDS011;18230;51.502;7.108;2022-09-20T21:09:41;7.55;;;3.38;;
31618;SDS011;18230;51.502;7.108;2022-09-20T21:14:41;9.80;;;3.40;;
31618;SDS011;18230;51.502;7.108;2022-09-20T21:19:43;7.13;;;3.30;;
31618;SDS011;18230;51.502;7.108;2022-09-20T21:24:44;12.50;;;3.55;;
31618;SDS011;18230;51.502;7.108;2022-09-20T21:29:46;13.25;;;3.72;;
31618;SDS011;18230;51.502;7.108;2022-09-20T21:34:46;9.43;;;4.45;;
31618;SDS011;18230;51.502;7.108;2022-09-20T21:39:47;7.25;;;4.10;;
31618;SDS011;18230;51.502;7.108;2022-09-20T21:44:47;11.50;;;4.72;;
31618;SDS011;18230;51.502;7.108;2022-09-20T21:49:48;12.00;;;4.80;;
31618;SDS011;18230;51.502;7.108;2022-09-20T21:54:49;14.98;;;5.28;;
31618;SDS011;18230;51.502;7.108;2022-09-20T21:59:50;9.05;;;4.70;;
31618;SDS011;18230;51.502;7.108;2022-09-20T22:04:51;9.57;;;4.15;;
31618;SDS011;18230;51.502;7.108;2022-09-20T22:09:52;9.63;;;4.53;;
31618;SDS011;18230;51.502;7.108;2022-09-20T22:14:53;12.75;;;4.93;;
31618;SDS011;18230;51.502;7.108;2022-09-20T22:19:53;11.90;;;5.35;;
31618;SDS011;18230;51.502;7.108;2022-09-20T22:24:55;11.40;;;5.18;;
31618;SDS011;18230;51.502;7.108;2022-09-20T22:29:56;12.35;;;5.10;;
31618;SDS011;18230;51.502;7.108;2022-09-20T22:34:57;12.35;;;5.30;;
31618;SDS011;18230;51.502;7.108;2022-09-20T22:39:59;15.75;;;5.57;;
31618;SDS011;18230;51.502;7.108;2022-09-20T22:45:00;14.75;;;5.82;;
31618;SDS011;18230;51.502;7.108;2022-09-20T22:50:01;14.25;;;4.72;;
31618;SDS011;18230;51.502;7.108;2022-09-20T22:55:01;11.80;;;5.40;;
31618;SDS011;18230;51.502;7.108;2022-09-20T23:00:02;14.80;;;5.25;;
31618;SDS011;18230;51.502;7.108;2022-09-20T23:05:03;10.82;;;4.57;;
31618;SDS011;18230;51.502;7.108;2022-09-20T23:10:05;15.32;;;5.32;;
31618;SDS011;18230;51.502;7.108;2022-09-20T23:15:06;10.95;;;5.07;;
31618;SDS011;18230;51.502;7.108;2022-09-20T23:20:10;13.77;;;4.88;;
31618;SDS011;18230;51.502;7.108;2022-09-20T23:25:11;13.07;;;5.40;;
31618;SDS011;18230;51.502;7.108;2022-09-20T23:30:12;14.93;;;5.90;;
31618;SDS011;18230;51.502;7.108;2022-09-20T23:35:12;15.07;;;5.78;;
31618;SDS011;18230;51.502;7.108;2022-09-20T23:40:13;15.07;;;6.32;;
31618;SDS011;18230;51.502;7.108;2022-09-20T23:45:15;16.05;;;5.55;;
31618;SDS011;18230;51.502;7.108;2022-09-20T23:50:16;10.70;;;5.25;;
31618;SDS011;18230;51.502;7.108;2022-09-20T23:55:16;11.98;;;5.50;;
